Time;durP1;ratioP1;P1;durP2;ratioP2;P2;SDS_P1;SDS_P2;PMS_P1;PMS_P2;Temp;Humidity;BMP_temperature;BMP_pressure;BME280_temperature;BME280_humidity;BME280_pressure;Samples;Min_cycle;Max_cycle;Signal;HPM_P1;HPM_P2
2022/10/05 00:00:21;;;;;;;11.40;5.93;;;;;;;;;;4971426;28;20069;-61
2022/10/05 00:02:48;;;;;;;8.27;6.10;;;;;;;;;;4970827;28;20117;-62
2022/10/05 00:05:34;;;;;;;8.00;5.60;;;;;;;;;;4971102;28;20086;-62
2022/10/05 00:08:20;;;;;;;11.70;6.30;;;;;;;;;;4971044;28;20054;-61
2022/10/05 00:10:47;;;;;;;8.47;5.40;;;;;;;;;;4969377;28;20058;-62
2022/10/05 00:13:14;;;;;;;9.70;5.23;;;;;;;;;;4970960;28;20520;-62
2022/10/05 00:15:40;;;;;;;10.50;5.57;;;;;;;;;;4970804;28;20054;-61
2022/10/05 00:18:12;;;;;;;8.53;5.67;;;;;;;;;;4970819;28;20050;-61
2022/10/05 00:20:39;;;;;;;10.20;5.53;;;;;;;;;;4970672;28;21064;-61
2022/10/05 00:23:07;;;;;;;7.70;5.60;;;;;;;;;;4970601;28;20137;-61
2022/10/05 00:25:34;;;;;;;7.63;5.30;;;;;;;;;;4970913;28;20047;-61
2022/10/05 00:28:00;;;;;;;8.53;5.70;;;;;;;;;;4971192;28;20094;-61
2022/10/05 00:30:32;;;;;;;8.27;5.00;;;;;;;;;;4970334;28;20616;-61
2022/10/05 00:32:58;;;;;;;10.87;5.37;;;;;;;;;;4970907;28;20051;-61
2022/10/05 00:35:24;;;;;;;11.07;5.67;;;;;;;;;;4970700;28;20051;-61
2022/10/05 00:37:54;;;;;;;11.60;5.83;;;;;;;;;;4971154;28;20055;-61
2022/10/05 00:40:39;;;;;;;9.93;5.70;;;;;;;;;;4970744;28;20053;-61
2022/10/05 00:43:21;;;;;;;7.57;5.97;;;;;;;;;;4970579;28;20174;-61
2022/10/05 00:45:51;;;;;;;10.50;5.37;;;;;;;;;;4970724;28;20038;-62
2022/10/05 00:48:28;;;;;;;8.83;5.97;;;;;;;;;;4971707;28;20488;-61
2022/10/05 00:51:15;;;;;;;9.83;6.07;;;;;;;;;;4974601;28;20053;-61
2022/10/05 00:54:00;;;;;;;9.77;5.93;;;;;;;;;;4974224;28;20269;-61
2022/10/05 00:56:45;;;;;;;8.43;5.87;;;;;;;;;;4974526;28;20043;-61
2022/10/05 00:59:28;;;;;;;11.23;7.00;;;;;;;;;;4974259;28;20089;-61
2022/10/05 01:01:54;;;;;;;;;;;;;;;;;;4973109;28;20043;-61
2022/10/05 01:04:26;;;;;;;11.10;6.57;;;;;;;;;;4973333;28;19976;-61
2022/10/05 01:07:10;;;;;;;11.67;7.50;;;;;;;;;;4973697;28;20141;-61
2022/10/05 01:09:55;;;;;;;10.13;6.60;;;;;;;;;;4974252;28;20533;-61
2022/10/05 01:12:27;;;;;;;8.90;6.50;;;;;;;;;;4974244;28;20047;-61
2022/10/05 01:15:02;;;;;;;11.57;5.77;;;;;;;;;;4973960;28;20393;-61
2022/10/05 01:17:34;;;;;;;9.43;6.17;;;;;;;;;;4973881;28;20051;-61
2022/10/05 01:20:13;;;;;;;11.03;7.13;;;;;;;;;;4974223;28;20051;-61
2022/10/05 01:23:00;;;;;;;10.97;5.97;;;;;;;;;;4973916;28;20057;-61
2022/10/05 01:25:38;;;;;;;11.63;5.60;;;;;;;;;;4973475;28;20043;-61
2022/10/05 01:28:08;;;;;;;12.87;7.03;;;;;;;;;;4973298;28;20050;-61
2022/10/05 01:30:37;;;;;;;10.63;6.50;;;;;;;;;;4973389;28;20059;-61
2022/10/05 01:33:09;;;;;;;10.43;6.80;;;;;;;;;;4973816;28;20138;-61
2022/10/05 01:35:53;;;;;;;12.67;7.23;;;;;;;;;;4973688;28;20043;-61
2022/10/05 01:38:22;;;;;;;11.43;7.43;;;;;;;;;;4973312;28;20047;-61
2022/10/05 01:40:51;;;;;;;10.10;6.97;;;;;;;;;;4973410;28;20053;-61
2022/10/05 01:43:20;;;;;;;11.10;8.00;;;;;;;;;;4973512;28;20054;-61
2022/10/05 01:45:46;;;;;;;12.63;7.70;;;;;;;;;;4973052;28;20046;-61
2022/10/05 01:48:12;;;;;;;15.03;7.67;;;;;;;;;;4972807;28;20053;-61
2022/10/05 01:50:56;;;;;;;11.73;7.17;;;;;;;;;;4973478;28;20039;-61
2022/10/05 01:53:22;;;;;;;14.40;7.43;;;;;;;;;;4973395;28;20050;-61
2022/10/05 01:55:56;;;;;;;14.33;7.87;;;;;;;;;;4972917;28;20445;-61
2022/10/05 01:58:24;;;;;;;13.20;7.10;;;;;;;;;;4973508;28;20046;-62
2022/10/05 02:01:05;;;;;;;10.13;6.20;;;;;;;;;;4973311;28;20062;-61
2022/10/05 02:03:35;;;;;;;10.30;6.70;;;;;;;;;;4973358;28;20047;-61
2022/10/05 02:06:04;;;;;;;12.67;6.60;;;;;;;;;;4973531;28;20046;-61
2022/10/05 02:08:56;;;;;;;9.30;6.00;;;;;;;;;;4972540;28;20058;-61
2022/10/05 02:11:22;;;;;;;12.00;7.53;;;;;;;;;;4970175;28;20079;-61
2022/10/05 02:13:48;;;;;;;12.70;6.93;;;;;;;;;;4973391;28;20463;-62
2022/10/05 02:16:16;;;;;;;10.90;6.63;;;;;;;;;;4972940;28;20096;-63
2022/10/05 02:18:58;;;;;;;10.43;5.83;;;;;;;;;;4972627;28;20073;-62
2022/10/05 02:21:24;;;;;;;9.47;6.43;;;;;;;;;;4972861;28;20047;-62
2022/10/05 02:23:51;;;;;;;10.80;6.57;;;;;;;;;;4972795;28;20051;-62
2022/10/05 02:26:18;;;;;;;8.83;5.80;;;;;;;;;;4972519;28;20042;-62
2022/10/05 02:28:51;;;;;;;9.50;6.10;;;;;;;;;;4971991;28;20039;-62
2022/10/05 02:31:20;;;;;;;12.70;6.80;;;;;;;;;;4972691;28;20055;-62
2022/10/05 02:33:46;;;;;;;10.77;6.17;;;;;;;;;;4971869;28;20046;-62
2022/10/05 02:36:14;;;;;;;9.63;7.00;;;;;;;;;;4972060;28;20046;-62
2022/10/05 02:38:59;;;;;;;11.20;6.07;;;;;;;;;;4971379;28;20086;-62
2022/10/05 02:41:44;;;;;;;10.00;5.77;;;;;;;;;;4972473;28;20054;-62
2022/10/05 02:44:30;;;;;;;11.77;7.60;;;;;;;;;;4972514;28;20046;-63
2022/10/05 02:46:56;;;;;;;8.80;6.23;;;;;;;;;;4972243;28;20124;-63
2022/10/05 02:49:45;;;;;;;12.97;6.27;;;;;;;;;;4971072;28;20039;-62
2022/10/05 02:52:18;;;;;;;9.30;6.03;;;;;;;;;;4972311;28;20081;-63
2022/10/05 02:54:49;;;;;;;9.15;6.53;;;;;;;;;;4972188;28;20413;-63
2022/10/05 02:57:28;;;;;;;8.53;6.17;;;;;;;;;;4970616;28;20049;-63
2022/10/05 02:59:57;;;;;;;9.87;5.73;;;;;;;;;;4971923;28;20051;-63
2022/10/05 03:02:29;;;;;;;8.70;5.87;;;;;;;;;;4972157;28;20042;-63
2022/10/05 03:05:01;;;;;;;9.00;6.20;;;;;;;;;;4970690;28;20054;-63
2022/10/05 03:07:30;;;;;;;8.13;5.97;;;;;;;;;;4971926;28;20043;-63
2022/10/05 03:10:01;;;;;;;8.33;5.53;;;;;;;;;;4972204;28;20058;-62
2022/10/05 03:12:38;;;;;;;11.80;6.30;;;;;;;;;;4971169;28;20378;-63
2022/10/05 03:15:07;;;;;;;9.63;5.97;;;;;;;;;;4972099;28;20039;-63
2022/10/05 03:17:45;;;;;;;11.40;6.10;;;;;;;;;;4972093;28;20054;-63
2022/10/05 03:20:19;;;;;;;11.27;6.50;;;;;;;;;;4971604;28;20505;-63
2022/10/05 03:22:58;;;;;;;10.57;7.70;;;;;;;;;;4971811;28;20043;-63
2022/10/05 03:25:32;;;;;;;10.17;6.67;;;;;;;;;;4971504;28;20049;-63
2022/10/05 03:28:03;;;;;;;9.70;6.60;;;;;;;;;;4971871;28;20057;-63
2022/10/05 03:30:32;;;;;;;14.13;6.63;;;;;;;;;;4971512;28;20055;-63
2022/10/05 03:33:04;;;;;;;9.73;6.77;;;;;;;;;;4971866;28;20089;-63
2022/10/05 03:35:40;;;;;;;11.40;7.10;;;;;;;;;;4971700;28;20047;-63
2022/10/05 03:38:06;;;;;;;10.53;6.93;;;;;;;;;;4971230;28;20134;-63
2022/10/05 03:40:35;;;;;;;13.47;7.63;;;;;;;;;;4971406;28;20504;-63
2022/10/05 03:43:11;;;;;;;14.37;7.43;;;;;;;;;;4970293;28;20043;-63
2022/10/05 03:45:56;;;;;;;9.57;6.93;;;;;;;;;;4971155;28;20039;-63
2022/10/05 03:48:28;;;;;;;12.13;7.00;;;;;;;;;;4970078;28;20043;-63
2022/10/05 03:51:00;;;;;;;11.85;7.38;;;;;;;;;;4971395;28;20042;-63
2022/10/05 03:53:33;;;;;;;11.33;7.07;;;;;;;;;;4971357;28;20055;-63
2022/10/05 03:56:11;;;;;;;14.23;7.37;;;;;;;;;;4971446;28;20051;-63
2022/10/05 03:58:49;;;;;;;14.97;8.07;;;;;;;;;;4971276;28;20050;-63
2022/10/05 04:01:18;;;;;;;12.43;8.17;;;;;;;;;;4971081;28;20516;-63
2022/10/05 04:03:47;;;;;;;10.83;7.23;;;;;;;;;;4971393;28;20505;-63
2022/10/05 04:06:14;;;;;;;12.40;7.43;;;;;;;;;;4971423;28;20047;-64
2022/10/05 04:08:54;;;;;;;11.70;7.70;;;;;;;;;;4971041;28;20047;-62
2022/10/05 04:11:23;;;;;;;12.30;8.40;;;;;;;;;;4969785;28;20053;-63
2022/10/05 04:13:54;;;;;;;12.03;8.10;;;;;;;;;;4971048;28;20038;-63
2022/10/05 04:16:29;;;;;;;12.10;7.27;;;;;;;;;;4971106;28;20053;-63
2022/10/05 04:19:12;;;;;;;8.37;6.33;;;;;;;;;;4970840;28;20054;-63
2022/10/05 04:21:48;;;;;;;9.02;7.32;;;;;;;;;;4971162;28;20047;-63
2022/10/05 04:24:33;;;;;;;12.03;8.00;;;;;;;;;;4973767;28;20055;-63
2022/10/05 04:27:22;;;;;;;15.00;8.43;;;;;;;;;;4974924;28;20062;-63
2022/10/05 04:30:07;;;;;;;12.10;7.47;;;;;;;;;;4966973;28;20075;-63
2022/10/05 04:32:41;;;;;;;10.70;7.60;;;;;;;;;;4974882;28;20136;-63
2022/10/05 04:35:25;;;;;;;11.90;7.63;;;;;;;;;;4974632;28;20070;-64
2022/10/05 04:37:57;;;;;;;10.47;7.03;;;;;;;;;;4974816;28;20091;-63
2022/10/05 04:40:38;;;;;;;14.33;7.87;;;;;;;;;;4974692;28;20050;-63
2022/10/05 04:43:13;;;;;;;12.80;7.73;;;;;;;;;;4974543;28;20065;-63
2022/10/05 04:45:55;;;;;;;13.27;7.90;;;;;;;;;;4972852;28;20054;-63
2022/10/05 04:48:37;;;;;;;12.20;7.47;;;;;;;;;;4972624;28;20122;-63
2022/10/05 04:51:09;;;;;;;10.77;7.80;;;;;;;;;;4974208;28;20465;-63
2022/10/05 04:53:40;;;;;;;14.37;8.10;;;;;;;;;;4973728;28;20047;-63
2022/10/05 04:56:17;;;;;;;12.10;7.70;;;;;;;;;;4973689;28;20042;-64
2022/10/05 04:58:59;;;;;;;14.60;8.03;;;;;;;;;;4974113;28;20520;-63
2022/10/05 05:01:46;;;;;;;13.43;8.23;;;;;;;;;;4971864;28;20043;-62
2022/10/05 05:04:32;;;;;;;12.07;8.00;;;;;;;;;;4971360;28;20050;-63
2022/10/05 05:07:30;;;;;;;11.00;7.70;;;;;;;;;;4971637;28;20121;-63
2022/10/05 05:10:04;;;;;;;12.00;7.73;;;;;;;;;;4938799;28;20059;-62
2022/10/05 05:12:40;;;;;;;12.47;8.40;;;;;;;;;;4971634;28;20038;-63
2022/10/05 05:15:12;;;;;;;10.17;8.20;;;;;;;;;;4972049;28;20700;-63
2022/10/05 05:17:58;;;;;;;12.83;7.83;;;;;;;;;;4973214;28;20050;-63
2022/10/05 05:20:30;;;;;;;17.27;8.27;;;;;;;;;;4973133;28;20047;-63
2022/10/05 05:23:02;;;;;;;12.53;8.43;;;;;;;;;;4973413;28;20054;-62
2022/10/05 05:25:41;;;;;;;13.00;9.40;;;;;;;;;;4972892;28;20078;-62
2022/10/05 05:28:10;;;;;;;12.90;9.43;;;;;;;;;;4971782;28;20468;-63
2022/10/05 05:30:48;;;;;;;13.80;9.47;;;;;;;;;;4959795;28;20055;-63
2022/10/05 05:33:14;;;;;;;12.60;9.27;;;;;;;;;;4973216;28;20066;-62
2022/10/05 05:35:59;;;;;;;13.37;8.60;;;;;;;;;;4971597;28;20459;-63
2022/10/05 05:38:49;;;;;;;13.73;8.77;;;;;;;;;;4972613;28;20050;-62
2022/10/05 05:41:37;;;;;;;12.77;9.33;;;;;;;;;;4972194;28;20090;-62
2022/10/05 05:44:19;;;;;;;12.03;8.40;;;;;;;;;;4973025;28;20049;-62
2022/10/05 05:47:05;;;;;;;13.07;9.27;;;;;;;;;;4970602;28;20101;-62
2022/10/05 05:49:40;;;;;;;14.67;8.70;;;;;;;;;;4960068;28;20098;-62
2022/10/05 05:52:12;;;;;;;13.07;9.20;;;;;;;;;;4969367;28;20050;-62
2022/10/05 05:54:42;;;;;;;16.00;9.73;;;;;;;;;;4969993;28;20043;-63
2022/10/05 05:57:15;;;;;;;11.80;8.23;;;;;;;;;;4965924;28;20472;-63
2022/10/05 05:59:41;;;;;;;13.27;9.47;;;;;;;;;;4971036;28;20055;-62
2022/10/05 06:02:10;;;;;;;14.23;9.00;;;;;;;;;;4971782;28;20057;-63
2022/10/05 06:04:39;;;;;;;14.17;9.40;;;;;;;;;;4970005;28;20563;-62
2022/10/05 06:07:06;;;;;;;15.53;9.67;;;;;;;;;;4963832;28;20055;-63
2022/10/05 06:09:38;;;;;;;14.00;9.57;;;;;;;;;;4964691;28;20069;-62
2022/10/05 06:12:08;;;;;;;15.07;10.00;;;;;;;;;;4971188;28;20185;-62
2022/10/05 06:14:37;;;;;;;13.03;9.60;;;;;;;;;;4970709;28;20043;-62
2022/10/05 06:17:26;;;;;;;13.10;9.03;;;;;;;;;;4960429;28;20050;-63
2022/10/05 06:19:55;;;;;;;14.23;9.17;;;;;;;;;;4961792;28;20055;-63
2022/10/05 06:22:42;;;;;;;11.47;9.17;;;;;;;;;;4969886;28;20054;-62
2022/10/05 06:25:11;;;;;;;13.30;9.57;;;;;;;;;;4951409;28;20094;-63
2022/10/05 06:27:56;;;;;;;12.07;9.00;;;;;;;;;;4960299;28;20047;-63
2022/10/05 06:30:22;;;;;;;11.93;8.50;;;;;;;;;;4952234;28;20054;-62
2022/10/05 06:32:58;;;;;;;15.17;10.03;;;;;;;;;;4952382;28;20096;-62
2022/10/05 06:35:28;;;;;;;12.10;8.77;;;;;;;;;;4952526;28;20047;-63
2022/10/05 06:37:54;;;;;;;12.13;8.57;;;;;;;;;;4964306;28;20050;-63
2022/10/05 06:40:38;;;;;;;13.03;8.70;;;;;;;;;;4970986;28;20054;-63
2022/10/05 06:43:10;;;;;;;12.47;8.57;;;;;;;;;;4970599;28;20057;-62
2022/10/05 06:45:36;;;;;;;9.63;7.87;;;;;;;;;;4970065;28;20459;-63
2022/10/05 06:48:05;;;;;;;10.93;7.93;;;;;;;;;;4969962;28;20681;-62
2022/10/05 06:50:58;;;;;;;10.20;7.33;;;;;;;;;;4971096;28;20050;-62
2022/10/05 06:53:27;;;;;;;11.33;7.83;;;;;;;;;;4961773;28;20046;-62
2022/10/05 06:56:02;;;;;;;10.10;8.47;;;;;;;;;;4970857;28;20394;-63
2022/10/05 06:58:30;;;;;;;8.83;7.43;;;;;;;;;;4969978;28;20158;-62
2022/10/05 07:01:09;;;;;;;11.43;7.33;;;;;;;;;;4970479;28;20047;-62
2022/10/05 07:03:54;;;;;;;10.40;7.73;;;;;;;;;;4969261;28;20063;-62
2022/10/05 07:06:23;;;;;;;10.73;7.47;;;;;;;;;;4970330;28;20503;-62
2022/10/05 07:08:49;;;;;;;9.20;6.80;;;;;;;;;;4970014;28;20047;-62
2022/10/05 07:11:24;;;;;;;15.23;7.03;;;;;;;;;;4970398;28;20051;-62
2022/10/05 07:14:09;;;;;;;8.07;6.90;;;;;;;;;;4970595;28;20153;-62
2022/10/05 07:16:41;;;;;;;13.47;7.77;;;;;;;;;;4970160;28;20489;-62
2022/10/05 07:19:21;;;;;;;10.80;6.40;;;;;;;;;;4970463;28;20121;-63
2022/10/05 07:21:47;;;;;;;9.83;6.90;;;;;;;;;;4970014;28;20413;-62
2022/10/05 07:24:32;;;;;;;7.97;7.00;;;;;;;;;;4970143;28;20050;-63
2022/10/05 07:27:21;;;;;;;9.97;6.20;;;;;;;;;;4970325;28;20468;-62
2022/10/05 07:29:51;;;;;;;8.67;6.70;;;;;;;;;;4965980;28;20063;-62
2022/10/05 07:32:42;;;;;;;8.43;6.97;;;;;;;;;;4970083;28;20050;-62
2022/10/05 07:38:31;;;;;;;11.15;7.30;;;;;;;;;;4969823;28;20406;-62
2022/10/05 07:41:07;;;;;;;9.40;7.47;;;;;;;;;;4969057;28;20067;-62
2022/10/05 07:43:33;;;;;;;10.67;7.10;;;;;;;;;;4969538;28;20051;-62
2022/10/05 07:46:09;;;;;;;15.20;7.63;;;;;;;;;;4968770;28;20065;-62
2022/10/05 07:48:42;;;;;;;9.50;6.67;;;;;;;;;;4969033;28;20058;-62
2022/10/05 07:51:08;;;;;;;8.88;6.90;;;;;;;;;;4969612;28;20134;-63
2022/10/05 07:53:34;;;;;;;12.23;7.83;;;;;;;;;;4969526;28;20421;-62
2022/10/05 07:56:03;;;;;;;9.83;6.43;;;;;;;;;;4969824;28;20448;-62
2022/10/05 07:58:47;;;;;;;11.17;6.90;;;;;;;;;;4968704;28;20124;-63
2022/10/05 08:01:18;;;;;;;11.40;7.00;;;;;;;;;;4969591;28;20050;-62
2022/10/05 08:04:22;;;;;;;7.90;6.23;;;;;;;;;;4969567;28;20065;-62
2022/10/05 08:06:51;;;;;;;9.87;5.93;;;;;;;;;;4947720;29;20532;-63
2022/10/05 08:09:20;;;;;;;7.97;6.03;;;;;;;;;;4947371;29;20446;-62
2022/10/05 08:12:06;;;;;;;8.13;6.00;;;;;;;;;;4958808;28;20069;-62
2022/10/05 08:14:51;;;;;;;9.40;5.67;;;;;;;;;;4969446;28;20043;-63
2022/10/05 08:17:23;;;;;;;9.57;6.27;;;;;;;;;;4969556;28;20527;-63
2022/10/05 08:19:57;;;;;;;8.02;5.78;;;;;;;;;;4969337;28;20088;-62
2022/10/05 08:22:29;;;;;;;11.93;6.53;;;;;;;;;;4969441;28;20504;-62
2022/10/05 08:24:58;;;;;;;7.97;6.23;;;;;;;;;;4968445;28;20055;-62
2022/10/05 08:27:28;;;;;;;8.27;5.73;;;;;;;;;;4969418;28;20054;-63
2022/10/05 08:30:14;;;;;;;8.50;5.80;;;;;;;;;;4968764;28;20098;-62
2022/10/05 08:32:48;;;;;;;11.07;5.43;;;;;;;;;;4969190;28;20464;-63
2022/10/05 08:35:32;;;;;;;5.75;4.57;;;;;;;;;;4969473;28;20057;-62
2022/10/05 08:37:59;;;;;;;10.53;5.67;;;;;;;;;;4969259;28;20046;-62
2022/10/05 08:40:55;;;;;;;8.67;5.40;;;;;;;;;;4969108;28;20051;-62
2022/10/05 08:43:37;;;;;;;7.07;4.70;;;;;;;;;;4968797;28;20073;-62
2022/10/05 08:46:22;;;;;;;7.67;5.17;;;;;;;;;;4969269;28;20085;-62
2022/10/05 08:49:03;;;;;;;7.83;4.60;;;;;;;;;;4969386;28;20038;-63
2022/10/05 08:51:29;;;;;;;5.53;3.60;;;;;;;;;;4969276;28;20471;-63
2022/10/05 08:53:55;;;;;;;5.43;3.83;;;;;;;;;;4968835;28;20865;-62
2022/10/05 08:56:33;;;;;;;7.20;4.13;;;;;;;;;;4968967;28;20080;-62
2022/10/05 08:58:59;;;;;;;6.03;3.73;;;;;;;;;;4969130;28;20464;-62
2022/10/05 09:01:45;;;;;;;6.60;3.87;;;;;;;;;;4968650;28;20050;-63
2022/10/05 09:04:14;;;;;;;4.30;3.40;;;;;;;;;;4968938;28;20070;-63
2022/10/05 09:06:52;;;;;;;5.47;3.50;;;;;;;;;;4967336;28;20059;-62
2022/10/05 09:09:18;;;;;;;4.87;3.33;;;;;;;;;;4969916;28;20047;-62
2022/10/05 09:11:44;;;;;;;5.27;3.17;;;;;;;;;;4972498;28;20170;-63
2022/10/05 09:14:10;;;;;;;5.53;3.73;;;;;;;;;;4972195;28;20487;-63
2022/10/05 09:16:51;;;;;;;5.60;3.33;;;;;;;;;;4964072;28;20050;-62
2022/10/05 09:19:36;;;;;;;4.57;3.20;;;;;;;;;;4952866;29;20043;-62
2022/10/05 09:22:03;;;;;;;6.43;2.83;;;;;;;;;;4953064;29;20058;-62
2022/10/05 09:24:38;;;;;;;5.50;3.63;;;;;;;;;;4952383;28;20058;-62
2022/10/05 09:27:12;;;;;;;7.03;3.37;;;;;;;;;;4952817;29;20101;-63
2022/10/05 09:29:53;;;;;;;4.40;3.03;;;;;;;;;;4952611;29;20101;-63
2022/10/05 09:32:38;;;;;;;5.70;3.73;;;;;;;;;;4952781;29;20055;-62
2022/10/05 09:35:24;;;;;;;5.23;3.70;;;;;;;;;;4952460;28;20571;-62
2022/10/05 09:37:56;;;;;;;6.30;3.23;;;;;;;;;;4952718;28;20109;-63
2022/10/05 09:40:43;;;;;;;5.78;3.15;;;;;;;;;;4952558;28;20090;-63
2022/10/05 09:43:28;;;;;;;5.10;3.30;;;;;;;;;;4951415;29;20075;-62
2022/10/05 09:46:03;;;;;;;4.33;3.03;;;;;;;;;;4952484;29;20078;-63
2022/10/05 09:48:35;;;;;;;7.23;3.53;;;;;;;;;;4952427;29;20501;-62
2022/10/05 09:51:10;;;;;;;6.07;3.77;;;;;;;;;;4952491;29;20062;-62
2022/10/05 09:53:39;;;;;;;8.17;3.53;;;;;;;;;;4952321;29;20047;-63
2022/10/05 09:56:05;;;;;;;7.67;4.03;;;;;;;;;;4952072;28;20058;-63
2022/10/05 09:58:41;;;;;;;5.70;3.27;;;;;;;;;;4951061;29;20142;-62
2022/10/05 10:01:19;;;;;;;5.47;3.73;;;;;;;;;;4951423;29;20465;-62
2022/10/05 10:03:45;;;;;;;5.77;3.60;;;;;;;;;;4952650;28;20062;-62
2022/10/05 10:06:38;;;;;;;6.17;3.80;;;;;;;;;;4950485;29;20051;-62
2022/10/05 10:09:07;;;;;;;4.73;3.07;;;;;;;;;;4956952;28;20081;-62
2022/10/05 10:11:54;;;;;;;5.17;3.47;;;;;;;;;;4971967;28;20050;-62
2022/10/05 10:14:38;;;;;;;5.27;3.37;;;;;;;;;;4968741;28;20055;-63
2022/10/05 10:17:16;;;;;;;4.37;3.57;;;;;;;;;;4963162;28;20513;-63
2022/10/05 10:19:45;;;;;;;5.67;3.47;;;;;;;;;;4969473;28;20061;-63
2022/10/05 10:22:30;;;;;;;5.43;4.10;;;;;;;;;;4971353;28;20047;-62
2022/10/05 10:24:59;;;;;;;7.00;4.00;;;;;;;;;;4968120;28;20752;-63
2022/10/05 10:27:43;;;;;;;4.10;3.00;;;;;;;;;;4983462;28;20062;-63
2022/10/05 10:30:22;;;;;;;4.17;3.30;;;;;;;;;;4970966;28;20469;-63
2022/10/05 10:32:58;;;;;;;6.50;3.30;;;;;;;;;;4968441;28;20050;-63
2022/10/05 10:35:30;;;;;;;3.87;3.17;;;;;;;;;;4969241;28;20051;-63
2022/10/05 10:38:03;;;;;;;5.33;2.70;;;;;;;;;;4969373;28;20063;-63
2022/10/05 10:40:33;;;;;;;4.10;2.60;;;;;;;;;;4970378;28;20485;-62
2022/10/05 10:43:15;;;;;;;5.70;3.23;;;;;;;;;;4968919;28;20052;-63
2022/10/05 10:45:50;;;;;;;5.13;2.50;;;;;;;;;;4952005;28;20055;-63
2022/10/05 10:48:29;;;;;;;5.63;2.80;;;;;;;;;;4944475;28;20081;-63
2022/10/05 10:51:07;;;;;;;5.70;3.37;;;;;;;;;;4966892;28;20046;-63
2022/10/05 10:53:52;;;;;;;7.27;2.90;;;;;;;;;;4956637;28;20043;-63
2022/10/05 10:56:24;;;;;;;3.27;2.77;;;;;;;;;;4961396;28;20074;-63
2022/10/05 10:59:16;;;;;;;6.50;2.73;;;;;;;;;;4969868;28;20039;-62
2022/10/05 11:01:57;;;;;;;4.90;2.50;;;;;;;;;;4955730;28;20059;-63
2022/10/05 11:04:23;;;;;;;4.17;2.53;;;;;;;;;;4959861;28;20142;-62
2022/10/05 11:06:58;;;;;;;6.03;2.30;;;;;;;;;;4973512;28;20154;-63
2022/10/05 11:09:31;;;;;;;7.30;2.57;;;;;;;;;;4962599;28;20226;-63
2022/10/05 11:11:57;;;;;;;4.25;2.50;;;;;;;;;;4970701;28;20050;-63
2022/10/05 11:14:26;;;;;;;4.23;2.40;;;;;;;;;;4957197;28;20461;-63
2022/10/05 11:17:06;;;;;;;4.73;2.63;;;;;;;;;;4957041;28;20054;-63
2022/10/05 11:19:44;;;;;;;6.80;2.50;;;;;;;;;;4967242;28;20190;-63
2022/10/05 11:22:11;;;;;;;3.57;2.20;;;;;;;;;;4961534;28;20133;-63
2022/10/05 11:24:40;;;;;;;7.50;2.40;;;;;;;;;;4964539;28;20055;-63
2022/10/05 11:27:17;;;;;;;3.97;2.33;;;;;;;;;;4963012;28;20050;-63
2022/10/05 11:29:58;;;;;;;5.77;2.37;;;;;;;;;;4971781;28;20325;-63
2022/10/05 11:32:42;;;;;;;5.13;2.67;;;;;;;;;;4975042;28;20058;-62
2022/10/05 11:35:27;;;;;;;5.53;2.57;;;;;;;;;;4967703;28;20050;-63
2022/10/05 11:38:06;;;;;;;5.40;2.80;;;;;;;;;;4967956;28;20046;-62
2022/10/05 11:40:51;;;;;;;4.90;2.40;;;;;;;;;;4969688;28;20058;-63
2022/10/05 11:43:23;;;;;;;7.83;3.30;;;;;;;;;;4968000;28;20138;-63
2022/10/05 11:45:49;;;;;;;3.47;2.10;;;;;;;;;;4967994;28;20462;-63
2022/10/05 11:48:23;;;;;;;5.30;2.70;;;;;;;;;;4968305;28;20086;-63
2022/10/05 11:50:54;;;;;;;5.13;2.77;;;;;;;;;;4969645;28;20046;-62
2022/10/05 11:53:40;;;;;;;6.00;2.50;;;;;;;;;;4968055;28;20389;-63
2022/10/05 11:56:15;;;;;;;6.10;2.87;;;;;;;;;;4968365;28;20125;-62
2022/10/05 11:58:48;;;;;;;4.53;2.97;;;;;;;;;;4950391;28;20117;-63
2022/10/05 12:01:22;;;;;;;7.57;2.90;;;;;;;;;;4969319;28;20055;-63
2022/10/05 12:03:58;;;;;;;5.53;2.67;;;;;;;;;;4968680;28;20054;-63
2022/10/05 12:06:24;;;;;;;4.37;2.90;;;;;;;;;;4968148;28;20137;-63
2022/10/05 12:08:53;;;;;;;6.90;2.90;;;;;;;;;;4968630;28;20591;-63
2022/10/05 12:11:54;;;;;;;5.07;2.50;;;;;;;;;;4968774;28;20252;-63
2022/10/05 12:14:40;;;;;;;6.23;2.63;;;;;;;;;;4944523;29;20150;-62
2022/10/05 12:17:24;;;;;;;5.23;2.43;;;;;;;;;;4966561;28;20059;-63
2022/10/05 12:19:54;;;;;;;5.80;3.10;;;;;;;;;;4968296;28;20528;-62
2022/10/05 12:22:38;;;;;;;9.30;2.90;;;;;;;;;;4969135;28;20078;-63
2022/10/05 12:25:05;;;;;;;6.23;2.90;;;;;;;;;;4967780;28;20059;-63
2022/10/05 12:27:37;;;;;;;8.17;3.13;;;;;;;;;;4967243;28;20067;-63
2022/10/05 12:30:10;;;;;;;5.87;2.97;;;;;;;;;;4967255;28;20055;-62
2022/10/05 12:32:48;;;;;;;5.60;2.87;;;;;;;;;;4968273;28;20134;-63
2022/10/05 12:35:17;;;;;;;4.83;2.20;;;;;;;;;;4967200;28;20058;-63
2022/10/05 12:37:54;;;;;;;7.53;2.87;;;;;;;;;;4967587;28;20109;-62
2022/10/05 12:40:32;;;;;;;10.03;2.83;;;;;;;;;;4969026;28;20133;-63
2022/10/05 12:43:17;;;;;;;6.00;3.00;;;;;;;;;;4967359;28;20141;-62
2022/10/05 12:45:48;;;;;;;5.00;2.93;;;;;;;;;;4972012;28;20054;-63
2022/10/05 12:48:14;;;;;;;4.50;2.83;;;;;;;;;;4972164;28;20058;-63
2022/10/05 12:50:50;;;;;;;4.87;2.73;;;;;;;;;;4972113;28;20464;-63
2022/10/05 12:53:28;;;;;;;6.17;2.90;;;;;;;;;;4970862;28;20074;-63
2022/10/05 12:56:08;;;;;;;14.50;3.23;;;;;;;;;;4972522;28;20047;-63
2022/10/05 12:58:34;;;;;;;5.27;2.70;;;;;;;;;;4971189;28;20054;-63
2022/10/05 13:01:18;;;;;;;7.33;2.50;;;;;;;;;;4972651;28;20050;-63
2022/10/05 13:03:59;;;;;;;8.50;2.60;;;;;;;;;;4970566;28;20178;-63
2022/10/05 13:06:35;;;;;;;5.10;2.63;;;;;;;;;;4971889;28;20082;-63
2022/10/05 13:09:07;;;;;;;4.80;2.50;;;;;;;;;;4970855;28;20568;-63
2022/10/05 13:11:38;;;;;;;4.75;2.55;;;;;;;;;;4972229;28;20500;-63
2022/10/05 13:14:15;;;;;;;8.50;3.07;;;;;;;;;;4953177;28;20049;-62
2022/10/05 13:16:54;;;;;;;8.10;3.27;;;;;;;;;;4972324;28;20074;-62
2022/10/05 13:19:20;;;;;;;4.73;2.23;;;;;;;;;;4971478;28;20082;-63
2022/10/05 13:21:46;;;;;;;4.53;2.47;;;;;;;;;;4971940;28;20112;-63
2022/10/05 13:24:16;;;;;;;6.03;2.80;;;;;;;;;;4970203;28;20137;-63
2022/10/05 13:26:52;;;;;;;4.47;2.30;;;;;;;;;;4971112;28;20050;-63
2022/10/05 13:29:25;;;;;;;6.70;2.77;;;;;;;;;;4972210;28;20153;-63
2022/10/05 13:31:59;;;;;;;3.80;2.45;;;;;;;;;;4971190;28;20418;-63
2022/10/05 13:34:39;;;;;;;5.40;2.50;;;;;;;;;;4970863;28;20686;-63
2022/10/05 13:37:25;;;;;;;6.97;2.63;;;;;;;;;;4970022;28;20141;-63
2022/10/05 13:40:01;;;;;;;4.47;2.37;;;;;;;;;;4968059;28;20485;-63
2022/10/05 13:42:33;;;;;;;7.00;2.33;;;;;;;;;;4970646;28;20050;-63
2022/10/05 13:45:03;;;;;;;4.97;2.23;;;;;;;;;;4970355;28;20133;-63
2022/10/05 13:47:38;;;;;;;4.97;2.23;;;;;;;;;;4956038;28;20050;-63
2022/10/05 13:50:16;;;;;;;3.93;2.30;;;;;;;;;;4969907;28;20055;-63
2022/10/05 13:52:45;;;;;;;6.90;2.07;;;;;;;;;;4971355;28;20051;-62
2022/10/05 13:55:27;;;;;;;8.00;2.50;;;;;;;;;;4970456;28;20059;-63
2022/10/05 13:58:04;;;;;;;5.37;1.97;;;;;;;;;;4971234;28;20441;-63
2022/10/05 14:00:31;;;;;;;3.83;2.03;;;;;;;;;;4969432;28;20058;-63
2022/10/05 14:02:59;;;;;;;5.17;2.40;;;;;;;;;;4971376;28;20122;-62
2022/10/05 14:05:31;;;;;;;4.60;2.70;;;;;;;;;;4969420;28;20055;-63
2022/10/05 14:08:04;;;;;;;3.60;2.10;;;;;;;;;;4970258;28;20051;-63
2022/10/05 14:10:33;;;;;;;4.30;2.13;;;;;;;;;;4969863;28;20043;-63
2022/10/05 14:12:59;;;;;;;5.07;2.37;;;;;;;;;;4970818;28;20793;-63
2022/10/05 14:15:33;;;;;;;4.47;2.23;;;;;;;;;;4971438;28;20039;-63
2022/10/05 14:18:00;;;;;;;5.23;2.70;;;;;;;;;;4970918;28;20136;-63
2022/10/05 14:20:27;;;;;;;6.27;2.37;;;;;;;;;;4970507;28;20047;-63
2022/10/05 14:22:59;;;;;;;5.00;2.13;;;;;;;;;;4969345;28;20061;-63
2022/10/05 14:25:26;;;;;;;6.30;2.10;;;;;;;;;;4971037;28;20098;-63
2022/10/05 14:27:57;;;;;;;5.37;2.63;;;;;;;;;;4969839;28;20137;-64
2022/10/05 14:30:24;;;;;;;5.47;2.10;;;;;;;;;;4969894;28;20058;-63
2022/10/05 14:32:55;;;;;;;4.70;2.27;;;;;;;;;;4970769;28;20051;-63
2022/10/05 14:35:21;;;;;;;9.67;2.17;;;;;;;;;;4968622;28;20142;-62
2022/10/05 14:37:50;;;;;;;5.93;1.67;;;;;;;;;;4969506;28;20117;-63
2022/10/05 14:40:24;;;;;;;4.43;1.90;;;;;;;;;;4970724;28;20050;-63
2022/10/05 14:42:51;;;;;;;5.30;2.10;;;;;;;;;;4968272;28;20087;-63
2022/10/05 14:45:18;;;;;;;9.50;1.83;;;;;;;;;;4969113;28;20043;-63
2022/10/05 14:47:49;;;;;;;5.47;2.30;;;;;;;;;;4970262;28;20377;-63
2022/10/05 14:50:17;;;;;;;3.97;2.00;;;;;;;;;;4969210;28;20047;-63
2022/10/05 14:52:46;;;;;;;7.47;1.97;;;;;;;;;;4969544;28;20055;-63
2022/10/05 14:55:16;;;;;;;3.87;2.03;;;;;;;;;;4970076;28;20089;-63
2022/10/05 14:57:52;;;;;;;3.23;1.90;;;;;;;;;;4968240;28;20046;-63
2022/10/05 15:00:18;;;;;;;4.70;1.83;;;;;;;;;;4968174;28;20057;-63
2022/10/05 15:02:51;;;;;;;6.80;2.37;;;;;;;;;;4970403;28;20413;-63
2022/10/05 15:05:30;;;;;;;5.00;1.77;;;;;;;;;;4968542;28;20067;-63
2022/10/05 15:08:16;;;;;;;5.40;2.10;;;;;;;;;;4968965;28;20102;-63
2022/10/05 15:11:06;;;;;;;3.83;2.07;;;;;;;;;;4958400;28;20050;-63
2022/10/05 15:13:41;;;;;;;4.40;2.00;;;;;;;;;;4970112;28;20051;-62
2022/10/05 15:16:14;;;;;;;5.03;2.20;;;;;;;;;;4969335;28;20053;-63
2022/10/05 15:19:03;;;;;;;6.18;2.10;;;;;;;;;;4969565;28;20086;-63
2022/10/05 15:21:44;;;;;;;5.30;2.00;;;;;;;;;;4968873;28;20078;-63
2022/10/05 15:24:11;;;;;;;4.07;1.80;;;;;;;;;;4968474;28;20061;-63
2022/10/05 15:26:44;;;;;;;8.77;3.03;;;;;;;;;;4969814;28;20133;-63